Time;durP1;ratioP1;P1;durP2;ratioP2;P2;SDS_P1;SDS_P2;PMS_P1;PMS_P2;Temp;Humidity;BMP_temperature;BMP_pressure;BME280_temperature;BME280_humidity;BME280_pressure;Samples;Min_cycle;Max_cycle;Signal;HPM_P1;HPM_P2
2021/08/24 00:00:42;;;;;;;;;;;20.80;63.20;;;;;;5031231;28;1405;-72
2021/08/24 00:03:07;;;;;;;;;;;20.80;63.20;;;;;;5031651;28;1246;-72
2021/08/24 00:05:33;;;;;;;;;;;20.70;63.20;;;;;;5032293;28;1161;-72
2021/08/24 00:07:59;;;;;;;;;;;20.70;63.10;;;;;;5032299;28;1316;-72
2021/08/24 00:10:25;;;;;;;;;;;20.80;63.20;;;;;;5032287;28;1320;-72
2021/08/24 00:12:50;;;;;;;;;;;20.70;63.00;;;;;;5032253;28;1902;-72
2021/08/24 00:15:16;;;;;;;;;;;20.70;62.90;;;;;;5032580;28;1409;-72
2021/08/24 00:17:41;;;;;;;;;;;20.70;62.90;;;;;;5030828;28;1265;-72
2021/08/24 00:20:07;;;;;;;;;;;20.70;62.90;;;;;;5032072;28;1330;-72
2021/08/24 00:22:32;;;;;;;;;;;20.70;63.00;;;;;;5032180;28;1320;-73
2021/08/24 00:24:58;;;;;;;;;;;20.70;62.90;;;;;;5030526;28;1357;-72
2021/08/24 00:27:23;;;;;;;;;;;20.70;63.00;;;;;;5032429;28;1126;-72
2021/08/24 00:29:49;;;;;;;;;;;20.70;62.90;;;;;;5032603;28;1305;-71
2021/08/24 00:32:14;;;;;;;;;;;20.70;63.00;;;;;;5035867;28;1906;-72
2021/08/24 00:34:40;;;;;;;;;;;20.70;63.60;;;;;;5034391;28;1334;-72
2021/08/24 00:37:05;;;;;;;;;;;20.70;62.80;;;;;;5036296;28;1249;-72
2021/08/24 00:39:30;;;;;;;;;;;20.70;62.90;;;;;;5036115;28;1342;-72
2021/08/24 00:41:56;;;;;;;;;;;20.70;62.70;;;;;;5035900;28;1345;-73
2021/08/24 00:44:21;;;;;;;;;;;20.70;63.00;;;;;;5035626;28;1324;-71
2021/08/24 00:46:48;;;;;;;;;;;20.70;62.70;;;;;;5035901;28;1273;-72
2021/08/24 00:49:17;;;;;;;;;;;20.70;62.70;;;;;;5034428;28;1292;-72
2021/08/24 00:51:44;;;;;;;;;;;20.70;62.80;;;;;;5034643;28;1894;-73
2021/08/24 00:54:10;;;;;;;;;;;20.70;62.70;;;;;;5014442;28;1392;-73
2021/08/24 00:56:35;;;;;;;;;;;20.70;62.60;;;;;;5033975;28;1147;-72
2021/08/24 00:59:01;;;;;;;;;;;20.70;62.60;;;;;;5034374;28;1424;-73
2021/08/24 01:01:27;;;;;;;;;;;20.70;62.50;;;;;;5035416;28;1345;-72
2021/08/24 01:03:52;;;;;;;;;;;20.70;62.50;;;;;;5033646;28;1355;-71
2021/08/24 01:06:24;;;;;;;;;;;20.70;62.40;;;;;;5034215;28;1274;-72
2021/08/24 01:09:04;;;;;;;;;;;20.70;62.50;;;;;;5032921;28;1228;-73
2021/08/24 01:11:41;;;;;;;;;;;20.70;62.70;;;;;;5033953;28;2041;-72
2021/08/24 01:14:12;;;;;;;;;;;20.70;62.50;;;;;;5032279;28;1271;-71
2021/08/24 01:16:37;;;;;;;;;;;20.70;62.40;;;;;;5034845;28;1247;-72
2021/08/24 01:19:21;;;;;;;;;;;20.70;62.30;;;;;;5036072;28;1316;-71
2021/08/24 01:22:05;;;;;;;;;;;20.70;62.30;;;;;;5035152;28;1293;-71
2021/08/24 01:24:40;;;;;;;;;;;20.70;62.30;;;;;;5033455;28;1307;-72
2021/08/24 01:27:08;;;;;;;;;;;20.70;62.30;;;;;;5031768;28;1284;-71
2021/08/24 01:29:37;;;;;;;;;;;20.70;62.40;;;;;;5033888;28;1240;-71
2021/08/24 01:32:26;;;;;;;;;;;20.70;62.30;;;;;;5031020;28;1969;-72
2021/08/24 01:34:55;;;;;;;;;;;20.70;62.20;;;;;;5033178;28;1295;-71
2021/08/24 01:37:42;;;;;;;;;;;20.70;62.20;;;;;;5033553;28;1342;-71
2021/08/24 01:40:08;;;;;;;;;;;20.70;62.20;;;;;;5031868;28;1347;-71
2021/08/24 01:42:34;;;;;;;;;;;20.70;62.00;;;;;;5032791;28;1306;-72
2021/08/24 01:45:01;;;;;;;;;;;20.60;62.40;;;;;;5034415;28;1295;-72
2021/08/24 01:47:43;;;;;;;;;;;20.70;62.10;;;;;;5034406;28;1211;-71
2021/08/24 01:50:19;;;;;;;;;;;20.60;62.10;;;;;;5033901;28;1272;-70
2021/08/24 01:52:45;;;;;;;;;;;20.70;62.10;;;;;;5033788;28;1958;-71
2021/08/24 01:55:16;;;;;;;;;;;20.70;61.90;;;;;;5033452;28;1310;-72
2021/08/24 01:57:47;;;;;;;;;;;20.70;62.00;;;;;;5033761;28;1270;-70
2021/08/24 02:00:12;;;;;;;;;;;20.60;62.00;;;;;;5033784;28;1396;-70
2021/08/24 02:02:39;;;;;;;;;;;20.70;62.10;;;;;;5033629;28;1275;-70
2021/08/24 02:05:09;;;;;;;;;;;20.60;61.80;;;;;;5033292;28;1298;-69
2021/08/24 02:07:34;;;;;;;;;;;20.60;61.80;;;;;;5034681;28;1336;-69
2021/08/24 02:10:06;;;;;;;;;;;20.60;61.60;;;;;;5033406;28;1234;-71
2021/08/24 02:12:31;;;;;;;;;;;20.60;61.60;;;;;;5033337;28;1898;-70
2021/08/24 02:14:57;;;;;;;;;;;20.60;61.50;;;;;;5034231;28;1297;-71
2021/08/24 02:17:22;;;;;;;;;;;20.60;61.60;;;;;;5033559;28;1389;-70
2021/08/24 02:19:50;;;;;;;;;;;20.60;61.70;;;;;;5033435;28;1273;-71
2021/08/24 02:22:27;;;;;;;;;;;20.60;61.60;;;;;;5033402;28;1272;-71
2021/08/24 02:24:53;;;;;;;;;;;20.60;61.50;;;;;;5032701;28;1295;-72
2021/08/24 02:27:21;;;;;;;;;;;20.60;61.60;;;;;;5034386;28;1135;-72
2021/08/24 02:29:46;;;;;;;;;;;20.60;61.60;;;;;;5033164;28;1307;-71
2021/08/24 02:32:14;;;;;;;;;;;20.60;61.60;;;;;;5034295;28;1973;-71
2021/08/24 02:34:48;;;;;;;;;;;20.60;61.40;;;;;;5032688;28;1387;-72
2021/08/24 02:37:20;;;;;;;;;;;20.60;61.50;;;;;;5033085;28;1358;-71
2021/08/24 02:39:47;;;;;;;;;;;20.60;61.40;;;;;;5033548;28;1360;-71
2021/08/24 02:42:26;;;;;;;;;;;20.60;61.50;;;;;;5033782;28;1353;-71
2021/08/24 02:44:55;;;;;;;;;;;20.60;61.80;;;;;;5033355;28;1432;-72
2021/08/24 02:47:21;;;;;;;;;;;20.60;61.50;;;;;;5033184;28;1305;-71
2021/08/24 02:49:46;;;;;;;;;;;20.60;61.50;;;;;;5033650;28;1280;-71
2021/08/24 02:52:12;;;;;;;;;;;20.60;61.50;;;;;;5033217;28;1902;-71
2021/08/24 02:54:42;;;;;;;;;;;20.60;61.50;;;;;;5032420;28;1380;-70
2021/08/24 02:57:07;;;;;;;;;;;20.60;61.60;;;;;;5032511;28;1310;-70
2021/08/24 02:59:33;;;;;;;;;;;20.60;61.40;;;;;;5033852;28;1286;-69
2021/08/24 03:01:58;;;;;;;;;;;20.60;61.40;;;;;;5033609;28;1239;-71
2021/08/24 03:04:24;;;;;;;;;;;20.60;61.50;;;;;;5033202;28;1364;-72
2021/08/24 03:06:54;;;;;;;;;;;20.60;61.40;;;;;;5032177;28;1314;-71
2021/08/24 03:09:19;;;;;;;;;;;20.60;61.60;;;;;;5032462;28;1257;-72
2021/08/24 03:11:46;;;;;;;;;;;20.60;61.40;;;;;;5032288;28;1902;-71
2021/08/24 03:14:18;;;;;;;;;;;20.60;61.40;;;;;;5031943;28;1355;-71
2021/08/24 03:16:46;;;;;;;;;;;20.60;61.40;;;;;;5033034;28;1405;-71
2021/08/24 03:19:14;;;;;;;;;;;20.60;61.70;;;;;;5032541;28;1383;-71
2021/08/24 03:21:39;;;;;;;;;;;20.60;61.40;;;;;;5032709;28;1308;-71
2021/08/24 03:24:07;;;;;;;;;;;20.60;61.40;;;;;;5033916;28;1336;-72
2021/08/24 03:26:33;;;;;;;;;;;20.60;61.90;;;;;;5032230;28;1333;-72
2021/08/24 03:28:59;;;;;;;;;;;20.60;61.20;;;;;;5032084;28;1519;-70
2021/08/24 03:31:26;;;;;;;;;;;20.60;61.30;;;;;;5033157;28;1949;-70
2021/08/24 03:33:52;;;;;;;;;;;20.60;61.20;;;;;;5032605;28;1281;-70
2021/08/24 03:36:17;;;;;;;;;;;20.60;61.30;;;;;;5031901;28;1325;-71
2021/08/24 03:38:43;;;;;;;;;;;20.60;61.60;;;;;;5033320;28;1275;-71
2021/08/24 03:41:11;;;;;;;;;;;20.60;61.20;;;;;;5033004;28;1275;-70
2021/08/24 03:43:37;;;;;;;;;;;20.60;61.50;;;;;;5032801;28;1280;-71
2021/08/24 03:46:02;;;;;;;;;;;20.60;61.10;;;;;;5032963;28;1396;-70
2021/08/24 03:48:27;;;;;;;;;;;20.60;61.50;;;;;;5032889;28;1348;-71
2021/08/24 03:50:53;;;;;;;;;;;20.60;61.20;;;;;;5032982;28;1960;-71
2021/08/24 03:53:18;;;;;;;;;;;20.60;61.10;;;;;;5032695;28;1330;-70
2021/08/24 03:55:44;;;;;;;;;;;20.60;61.10;;;;;;5032708;28;1409;-71
2021/08/24 03:58:09;;;;;;;;;;;20.60;61.10;;;;;;5031584;28;1325;-71
2021/08/24 04:00:35;;;;;;;;;;;20.60;61.20;;;;;;5031271;28;1300;-71
2021/08/24 04:03:00;;;;;;;;;;;20.50;61.30;;;;;;5032485;28;1518;-69
2021/08/24 04:05:26;;;;;;;;;;;20.50;61.20;;;;;;5032285;28;1333;-71
2021/08/24 04:07:52;;;;;;;;;;;20.50;61.10;;;;;;5031455;28;1307;-71
2021/08/24 04:10:18;;;;;;;;;;;20.60;61.10;;;;;;5038034;28;1304;-71
2021/08/24 04:12:43;;;;;;;;;;;20.50;61.00;;;;;;5028851;28;1956;-71
2021/08/24 04:15:09;;;;;;;;;;;20.50;61.20;;;;;;5030692;28;1701;-71
2021/08/24 04:17:38;;;;;;;;;;;20.50;60.90;;;;;;5031707;28;1317;-71
2021/08/24 04:20:04;;;;;;;;;;;20.50;60.90;;;;;;5032194;28;1332;-71
2021/08/24 04:22:29;;;;;;;;;;;20.50;61.20;;;;;;5032175;28;1263;-72
2021/08/24 04:24:55;;;;;;;;;;;20.50;61.20;;;;;;5031249;28;1309;-72
2021/08/24 04:27:20;;;;;;;;;;;20.50;61.10;;;;;;5031591;28;1189;-72
2021/08/24 04:29:46;;;;;;;;;;;20.50;61.00;;;;;;5032692;28;1364;-72
2021/08/24 04:32:11;;;;;;;;;;;20.50;61.20;;;;;;5032508;28;1959;-72
2021/08/24 04:34:37;;;;;;;;;;;20.50;60.90;;;;;;5032327;28;1324;-71
2021/08/24 04:37:02;;;;;;;;;;;20.50;61.30;;;;;;5032399;28;1328;-71
2021/08/24 04:39:28;;;;;;;;;;;20.50;61.10;;;;;;5032399;28;1364;-72
2021/08/24 04:41:53;;;;;;;;;;;20.50;61.80;;;;;;5032585;28;1385;-71
2021/08/24 04:44:18;;;;;;;;;;;20.50;61.20;;;;;;5032076;28;1371;-71
2021/08/24 04:46:44;;;;;;;;;;;20.50;61.30;;;;;;5032057;28;1281;-71
2021/08/24 04:49:09;;;;;;;;;;;20.50;61.40;;;;;;5032637;28;1257;-71
2021/08/24 04:51:35;;;;;;;;;;;20.50;61.10;;;;;;5032279;28;1902;-71
2021/08/24 04:54:00;;;;;;;;;;;20.50;61.10;;;;;;5031978;28;1297;-71
2021/08/24 04:56:25;;;;;;;;;;;20.50;61.20;;;;;;5032542;28;1210;-72
2021/08/24 04:58:51;;;;;;;;;;;20.50;61.50;;;;;;5032309;28;1341;-72
2021/08/24 05:01:16;;;;;;;;;;;20.50;61.10;;;;;;5032445;28;1270;-72
2021/08/24 05:03:42;;;;;;;;;;;20.50;61.30;;;;;;5031687;28;1294;-72
2021/08/24 05:06:07;;;;;;;;;;;20.50;62.00;;;;;;5032201;28;1241;-72
2021/08/24 05:08:33;;;;;;;;;;;20.50;61.20;;;;;;5032463;28;1294;-72
2021/08/24 05:10:58;;;;;;;;;;;20.50;61.50;;;;;;5030951;28;1961;-72
2021/08/24 05:13:23;;;;;;;;;;;20.50;61.30;;;;;;5032096;28;1389;-72
2021/08/24 05:15:49;;;;;;;;;;;20.50;61.80;;;;;;5031954;28;1302;-71
2021/08/24 05:18:14;;;;;;;;;;;20.50;61.50;;;;;;5033266;28;1281;-71
2021/08/24 05:20:40;;;;;;;;;;;20.50;61.60;;;;;;5034408;28;1328;-70
2021/08/24 05:23:05;;;;;;;;;;;20.50;61.70;;;;;;5035129;28;1325;-71
2021/08/24 05:25:31;;;;;;;;;;;20.50;63.20;;;;;;5035700;28;1454;-71
2021/08/24 05:27:56;;;;;;;;;;;20.50;63.10;;;;;;5033662;28;1921;-71
2021/08/24 05:30:24;;;;;;;;;;;20.50;64.80;;;;;;5025987;28;2068;-70
2021/08/24 05:32:49;;;;;;;;;;;20.50;64.30;;;;;;5028361;28;1967;-71
2021/08/24 05:35:15;;;;;;;;;;;20.50;64.60;;;;;;5033728;28;1213;-72
2021/08/24 05:37:40;;;;;;;;;;;20.50;65.10;;;;;;5035188;28;1528;-71
2021/08/24 05:40:06;;;;;;;;;;;20.50;64.50;;;;;;5034112;28;1281;-73
2021/08/24 05:42:32;;;;;;;;;;;20.50;63.90;;;;;;5035003;28;1769;-70
2021/08/24 05:44:58;;;;;;;;;;;20.50;64.30;;;;;;5034649;28;1363;-71
2021/08/24 05:47:23;;;;;;;;;;;20.50;64.50;;;;;;5034961;28;1297;-71
2021/08/24 05:49:49;;;;;;;;;;;20.50;64.40;;;;;;5034519;28;1169;-72
2021/08/24 05:52:14;;;;;;;;;;;20.50;63.80;;;;;;5034993;28;1976;-72
2021/08/24 05:54:40;;;;;;;;;;;20.50;65.00;;;;;;5033437;28;1326;-72
2021/08/24 05:57:05;;;;;;;;;;;20.50;65.10;;;;;;5034855;28;1291;-72
2021/08/24 05:59:34;;;;;;;;;;;20.50;64.30;;;;;;5034653;28;1071;-73
2021/08/24 06:01:59;;;;;;;;;;;20.50;64.40;;;;;;5034765;28;1397;-71
2021/08/24 06:04:26;;;;;;;;;;;20.50;64.60;;;;;;5034458;28;1354;-72
2021/08/24 06:06:51;;;;;;;;;;;20.50;64.30;;;;;;5030973;28;2053;-72
2021/08/24 06:09:17;;;;;;;;;;;20.50;65.40;;;;;;5034771;28;1071;-73
2021/08/24 06:11:45;;;;;;;;;;;20.50;65.20;;;;;;5034442;28;1953;-73
2021/08/24 06:14:10;;;;;;;;;;;20.50;64.20;;;;;;5049285;22;2112;-66
2021/08/24 06:16:37;;;;;;;;;;;20.50;65.60;;;;;;5021771;28;1558;-66
2021/08/24 06:19:02;;;;;;;;;;;20.60;65.40;;;;;;4996262;28;1649;-66
2021/08/24 06:21:27;;;;;;;;;;;20.60;65.60;;;;;;5011367;28;1650;-66
2021/08/24 06:23:53;;;;;;;;;;;20.50;65.70;;;;;;5000864;28;1360;-66
2021/08/24 06:26:18;;;;;;;;;;;20.50;65.80;;;;;;4984375;28;1385;-66
2021/08/24 06:28:44;;;;;;;;;;;20.50;65.00;;;;;;4994809;28;1378;-66
2021/08/24 06:31:10;;;;;;;;;;;20.50;65.30;;;;;;4994909;28;1967;-66
2021/08/24 06:33:36;;;;;;;;;;;20.50;64.80;;;;;;4993498;28;1599;-66
2021/08/24 06:36:01;;;;;;;;;;;20.50;65.10;;;;;;4993696;28;1761;-66
2021/08/24 06:38:27;;;;;;;;;;;20.60;65.40;;;;;;4993669;28;1375;-66
2021/08/24 06:40:52;;;;;;;;;;;20.50;65.70;;;;;;4993651;28;1446;-66
2021/08/24 06:43:18;;;;;;;;;;;20.50;66.00;;;;;;4993095;28;1378;-66
2021/08/24 06:45:43;;;;;;;;;;;20.50;66.10;;;;;;4994700;28;1465;-66
2021/08/24 06:48:09;;;;;;;;;;;20.50;65.00;;;;;;4994634;28;1231;-66
2021/08/24 06:50:34;;;;;;;;;;;20.50;65.50;;;;;;4994766;28;1593;-66
2021/08/24 06:53:00;;;;;;;;;;;20.50;66.00;;;;;;4993287;28;1957;-65
2021/08/24 06:55:25;;;;;;;;;;;20.50;65.90;;;;;;4993076;28;1450;-66
2021/08/24 06:57:51;;;;;;;;;;;20.50;65.20;;;;;;4994366;28;1358;-65
2021/08/24 07:00:18;;;;;;;;;;;20.50;65.40;;;;;;4993310;28;1248;-66
2021/08/24 07:02:43;;;;;;;;;;;20.50;65.50;;;;;;4993181;28;1237;-65
2021/08/24 07:05:09;;;;;;;;;;;20.50;65.70;;;;;;4994091;28;1362;-65
2021/08/24 07:07:34;;;;;;;;;;;20.50;65.50;;;;;;4993275;28;1365;-65
2021/08/24 07:10:00;;;;;;;;;;;20.50;66.10;;;;;;4994340;28;1705;-65
2021/08/24 07:12:25;;;;;;;;;;;20.50;65.20;;;;;;4994018;28;1894;-65
2021/08/24 07:14:51;;;;;;;;;;;20.50;65.70;;;;;;4993748;28;1561;-65
2021/08/24 07:17:16;;;;;;;;;;;20.50;66.80;;;;;;4994198;28;1373;-66
2021/08/24 07:19:42;;;;;;;;;;;20.50;65.40;;;;;;4994108;28;1429;-65
2021/08/24 07:22:07;;;;;;;;;;;20.60;66.00;;;;;;4994089;28;1386;-65
2021/08/24 07:24:33;;;;;;;;;;;20.60;66.00;;;;;;4993572;28;1389;-66
2021/08/24 07:26:58;;;;;;;;;;;20.60;66.30;;;;;;4993825;28;1474;-65
2021/08/24 07:29:23;;;;;;;;;;;20.50;66.00;;;;;;4993964;28;1364;-65
2021/08/24 07:31:49;;;;;;;;;;;20.50;66.00;;;;;;4993999;28;1898;-65
2021/08/24 07:34:14;;;;;;;;;;;20.60;65.80;;;;;;4993542;28;1320;-66
2021/08/24 07:36:40;;;;;;;;;;;20.60;66.30;;;;;;4993903;28;1651;-65
2021/08/24 07:39:05;;;;;;;;;;;20.60;66.10;;;;;;4992531;28;1770;-65
2021/08/24 07:41:31;;;;;;;;;;;20.50;66.10;;;;;;4993394;28;1658;-66
2021/08/24 07:43:56;;;;;;;;;;;20.50;66.20;;;;;;4993303;28;1669;-66
2021/08/24 07:46:22;;;;;;;;;;;20.60;66.20;;;;;;4993829;28;1370;-66
2021/08/24 07:48:47;;;;;;;;;;;20.50;65.90;;;;;;4993720;28;1672;-66
2021/08/24 07:51:12;;;;;;;;;;;20.60;66.10;;;;;;4993753;28;1902;-66
2021/08/24 07:53:38;;;;;;;;;;;20.50;66.40;;;;;;4993264;28;1692;-65
2021/08/24 07:56:06;;;;;;;;;;;20.60;66.60;;;;;;4992403;28;1482;-65
2021/08/24 07:58:31;;;;;;;;;;;20.50;66.40;;;;;;4993571;28;1501;-65
2021/08/24 08:00:56;;;;;;;;;;;20.60;66.60;;;;;;4993727;28;1378;-65
2021/08/24 08:03:22;;;;;;;;;;;20.60;66.40;;;;;;4993315;28;1661;-65
2021/08/24 08:05:47;;;;;;;;;;;20.60;66.30;;;;;;4993629;28;1401;-65
2021/08/24 08:08:13;;;;;;;;;;;20.60;66.50;;;;;;4993550;28;1436;-65
2021/08/24 08:10:38;;;;;;;;;;;20.60;66.50;;;;;;4993430;28;1453;-65
2021/08/24 08:13:04;;;;;;;;;;;20.60;66.50;;;;;;4992980;28;1895;-65
2021/08/24 08:15:33;;;;;;;;;;;20.60;66.10;;;;;;4992006;28;1387;-65
2021/08/24 08:17:59;;;;;;;;;;;20.60;66.30;;;;;;4993762;28;1527;-65
2021/08/24 08:20:25;;;;;;;;;;;20.60;66.40;;;;;;4992374;28;1416;-65
2021/08/24 08:22:50;;;;;;;;;;;20.60;66.50;;;;;;4993312;28;1453;-65
2021/08/24 08:25:15;;;;;;;;;;;20.60;66.50;;;;;;4993049;28;1431;-65
2021/08/24 08:27:41;;;;;;;;;;;20.60;66.50;;;;;;4993192;28;1672;-65
2021/08/24 08:30:07;;;;;;;;;;;20.60;66.40;;;;;;4992462;28;1387;-65
2021/08/24 08:32:32;;;;;;;;;;;20.60;66.40;;;;;;4991966;28;1914;-65
2021/08/24 08:34:58;;;;;;;;;;;20.60;66.50;;;;;;4993321;28;1690;-65
2021/08/24 08:37:24;;;;;;;;;;;20.60;66.60;;;;;;4992044;28;1713;-65
2021/08/24 08:39:49;;;;;;;;;;;20.60;66.60;;;;;;4992087;28;1378;-65
2021/08/24 08:42:26;;;;;;;;;;;20.60;66.60;;;;;;4993139;28;1505;-65
2021/08/24 08:44:55;;;;;;;;;;;20.60;66.50;;;;;;4991630;28;1264;-65
2021/08/24 08:47:30;;;;;;;;;;;20.60;66.60;;;;;;4993075;28;1763;-65
2021/08/24 08:50:02;;;;;;;;;;;20.60;66.30;;;;;;4991376;28;1289;-65
2021/08/24 08:52:35;;;;;;;;;;;20.60;66.40;;;;;;4993771;28;1910;-65
2021/08/24 08:55:08;;;;;;;;;;;20.60;66.40;;;;;;4987841;28;1653;-64
2021/08/24 08:57:37;;;;;;;;;;;20.60;66.60;;;;;;4982892;28;1634;-64
2021/08/24 09:00:05;;;;;;;;;;;20.60;66.60;;;;;;4996989;28;1749;-64
2021/08/24 09:02:48;;;;;;;;;;;20.60;66.60;;;;;;4995409;28;1172;-65
2021/08/24 09:05:14;;;;;;;;;;;20.60;66.70;;;;;;4995287;28;1576;-65
2021/08/24 09:07:44;;;;;;;;;;;20.60;66.60;;;;;;4995486;28;1375;-65
2021/08/24 09:10:17;;;;;;;;;;;20.60;66.50;;;;;;4995460;28;1475;-64
2021/08/24 09:12:43;;;;;;;;;;;20.60;66.70;;;;;;4995319;28;1907;-65
2021/08/24 09:15:12;;;;;;;;;;;20.60;66.50;;;;;;4994836;28;1387;-65
2021/08/24 09:17:38;;;;;;;;;;;20.60;66.30;;;;;;4995181;28;1682;-65
2021/08/24 09:20:22;;;;;;;;;;;20.60;66.20;;;;;;4996494;28;1740;-65
2021/08/24 09:22:48;;;;;;;;;;;20.60;66.30;;;;;;4996283;28;1699;-65
2021/08/24 09:25:18;;;;;;;;;;;20.60;66.40;;;;;;4995994;28;1693;-65
2021/08/24 09:27:50;;;;;;;;;;;20.60;66.00;;;;;;4992692;28;1703;-65
2021/08/24 09:30:15;;;;;;;;;;;20.60;65.90;;;;;;4975682;28;1696;-64
2021/08/24 09:32:41;;;;;;;;;;;20.60;65.70;;;;;;4976566;28;1914;-64
2021/08/24 09:35:06;;;;;;;;;;;20.60;64.70;;;;;;4976295;28;1601;-64
2021/08/24 09:37:32;;;;;;;;;;;20.60;63.50;;;;;;4979386;28;1436;-64
2021/08/24 09:40:00;;;;;;;;;;;20.60;63.00;;;;;;4994665;28;1308;-64
2021/08/24 09:42:26;;;;;;;;;;;20.60;62.70;;;;;;4994780;28;1231;-64
2021/08/24 09:44:52;;;;;;;;;;;20.60;62.10;;;;;;4994508;28;1631;-63
2021/08/24 09:47:17;;;;;;;;;;;20.60;60.40;;;;;;4994724;28;1661;-64
2021/08/24 09:49:43;;;;;;;;;;;20.60;60.50;;;;;;4994872;28;1566;-64
2021/08/24 09:52:12;;;;;;;;;;;20.60;60.50;;;;;;4995441;28;1910;-64
2021/08/24 09:54:49;;;;;;;;;;;20.60;60.40;;;;;;4995157;28;1678;-63
2021/08/24 09:57:16;;;;;;;;;;;20.60;60.40;;;;;;4995534;28;1669;-64
2021/08/24 09:59:45;;;;;;;;;;;20.60;61.00;;;;;;4994146;28;1737;-64
2021/08/24 10:02:43;;;;;;;;;;;20.60;60.70;;;;;;4994130;28;2038;-64
2021/08/24 10:05:11;;;;;;;;;;;20.60;60.30;;;;;;4970378;28;2138;-64
2021/08/24 10:07:40;;;;;;;;;;;20.60;59.90;;;;;;4995425;28;1528;-64
2021/08/24 10:10:18;;;;;;;;;;;20.60;59.30;;;;;;4994326;28;1704;-64
2021/08/24 10:12:46;;;;;;;;;;;20.60;59.20;;;;;;4982853;28;1895;-64
2021/08/24 10:15:22;;;;;;;;;;;20.60;59.40;;;;;;4976492;28;1396;-64
2021/08/24 10:17:47;;;;;;;;;;;20.60;59.60;;;;;;4995166;28;1628;-64
2021/08/24 10:20:26;;;;;;;;;;;20.60;58.60;;;;;;4993348;28;1631;-64
2021/08/24 10:22:52;;;;;;;;;;;20.60;58.80;;;;;;4994394;28;1281;-64
2021/08/24 10:25:40;;;;;;;;;;;20.60;58.80;;;;;;4993938;28;1312;-64
2021/08/24 10:28:06;;;;;;;;;;;20.60;59.50;;;;;;4988657;28;1328;-64
2021/08/24 10:30:52;;;;;;;;;;;20.60;59.50;;;;;;4993190;28;1287;-64
2021/08/24 10:33:36;;;;;;;;;;;20.60;59.20;;;;;;4994132;28;1979;-63
2021/08/24 10:36:07;;;;;;;;;;;20.60;59.20;;;;;;4992440;28;1304;-64
2021/08/24 10:38:41;;;;;;;;;;;20.60;59.10;;;;;;4992486;28;1178;-64
2021/08/24 10:41:36;;;;;;;;;;;20.60;58.70;;;;;;4994004;28;1284;-64
2021/08/24 10:44:28;;;;;;;;;;;20.60;58.10;;;;;;4984536;28;1304;-63
2021/08/24 10:46:53;;;;;;;;;;;20.60;57.50;;;;;;4993220;28;1358;-64
2021/08/24 10:49:19;;;;;;;;;;;20.70;57.50;;;;;;4994218;28;1344;-64
2021/08/24 10:51:54;;;;;;;;;;;20.70;57.00;;;;;;4994076;28;1898;-64
2021/08/24 10:54:26;;;;;;;;;;;20.70;57.20;;;;;;4993599;28;1280;-64
2021/08/24 10:57:10;;;;;;;;;;;20.70;58.20;;;;;;4989399;28;1286;-64
2021/08/24 10:59:43;;;;;;;;;;;20.70;57.70;;;;;;4993687;28;1363;-64
2021/08/24 11:02:27;;;;;;;;;;;20.70;58.00;;;;;;4992768;28;1325;-64
2021/08/24 11:05:11;;;;;;;;;;;20.70;58.30;;;;;;4993080;28;1305;-63
2021/08/24 11:07:46;;;;;;;;;;;20.70;58.30;;;;;;4992877;28;1295;-65
2021/08/24 11:10:22;;;;;;;;;;;20.70;56.90;;;;;;4991145;28;1467;-65
2021/08/24 11:12:53;;;;;;;;;;;20.70;55.90;;;;;;4991452;28;1981;-64
2021/08/24 11:15:25;;;;;;;;;;;20.70;56.00;;;;;;4990522;28;1283;-64
2021/08/24 11:18:14;;;;;;;;;;;20.70;56.20;;;;;;4993364;28;1282;-66
2021/08/24 11:20:58;;;;;;;;;;;20.80;57.40;;;;;;4981026;28;1334;-66
2021/08/24 11:23:42;;;;;;;;;;;20.80;58.10;;;;;;4983725;28;1302;-66
2021/08/24 11:26:12;;;;;;;;;;;20.70;58.90;;;;;;4984683;28;1302;-66
2021/08/24 11:28:43;;;;;;;;;;;20.80;59.20;;;;;;4983642;28;1286;-65
2021/08/24 11:31:23;;;;;;;;;;;20.80;59.70;;;;;;4980362;28;1918;-66
2021/08/24 11:33:52;;;;;;;;;;;20.70;59.90;;;;;;4983457;28;1325;-66
2021/08/24 11:36:18;;;;;;;;;;;20.70;60.10;;;;;;4983454;28;1366;-66
2021/08/24 11:38:48;;;;;;;;;;;20.70;60.20;;;;;;4984876;28;1304;-65
2021/08/24 11:41:14;;;;;;;;;;;20.70;59.60;;;;;;4983284;28;1357;-66
2021/08/24 11:43:46;;;;;;;;;;;20.70;59.70;;;;;;4989045;28;1243;-65
2021/08/24 11:46:24;;;;;;;;;;;20.70;59.50;;;;;;4986124;28;1347;-66
2021/08/24 11:48:50;;;;;;;;;;;20.70;60.10;;;;;;4975502;28;1342;-65
2021/08/24 11:51:20;;;;;;;;;;;20.70;60.80;;;;;;4992439;28;1898;-66
2021/08/24 11:53:50;;;;;;;;;;;20.70;60.60;;;;;;4990569;28;1283;-66
2021/08/24 11:56:34;;;;;;;;;;;20.70;59.70;;;;;;4971123;28;1345;-66
2021/08/24 11:59:03;;;;;;;;;;;20.70;60.40;;;;;;4982439;28;1352;-67
2021/08/24 12:01:34;;;;;;;;;;;20.70;59.90;;;;;;4983034;28;1437;-67
2021/08/24 12:04:02;;;;;;;;;;;20.70;60.00;;;;;;4982521;28;1314;-66
2021/08/24 12:06:27;;;;;;;;;;;20.70;58.80;;;;;;4983627;28;1380;-65
2021/08/24 12:08:53;;;;;;;;;;;20.70;58.90;;;;;;4983008;28;1918;-66
2021/08/24 12:11:38;;;;;;;;;;;20.70;59.70;;;;;;4988824;28;1906;-66
2021/08/24 12:14:24;;;;;;;;;;;20.70;59.70;;;;;;4987028;28;1289;-68
2021/08/24 12:16:56;;;;;;;;;;;20.70;58.90;;;;;;4947468;28;1363;-65
2021/08/24 12:19:22;;;;;;;;;;;20.70;58.90;;;;;;4992040;28;1402;-66
2021/08/24 12:21:49;;;;;;;;;;;20.70;58.90;;;;;;4991896;28;1595;-65
2021/08/24 12:24:23;;;;;;;;;;;20.70;58.60;;;;;;4992730;28;1343;-65
2021/08/24 12:26:49;;;;;;;;;;;20.70;58.70;;;;;;4995382;28;1148;-66
2021/08/24 12:29:36;;;;;;;;;;;20.70;59.70;;;;;;4991123;28;1829;-66
2021/08/24 12:32:20;;;;;;;;;;;20.70;59.70;;;;;;4987791;28;1969;-64
2021/08/24 12:34:47;;;;;;;;;;;20.80;58.90;;;;;;4996661;28;1367;-65
2021/08/24 12:37:19;;;;;;;;;;;20.80;58.40;;;;;;4996540;28;1363;-64
2021/08/24 12:39:51;;;;;;;;;;;20.80;57.90;;;;;;4996684;28;1258;-64
2021/08/24 12:42:24;;;;;;;;;;;20.80;57.60;;;;;;4996748;28;1280;-64
2021/08/24 12:44:59;;;;;;;;;;;20.80;56.70;;;;;;4994691;28;1336;-64
2021/08/24 12:47:30;;;;;;;;;;;20.80;56.40;;;;;;4995322;28;1332;-66
2021/08/24 12:50:08;;;;;;;;;;;20.80;55.70;;;;;;4987437;28;1320;-65
2021/08/24 12:52:34;;;;;;;;;;;20.80;57.10;;;;;;4986877;28;1910;-65
2021/08/24 12:55:04;;;;;;;;;;;20.80;57.10;;;;;;4989570;28;1370;-65
2021/08/24 12:57:34;;;;;;;;;;;20.80;58.20;;;;;;4986193;28;1398;-66
2021/08/24 13:00:18;;;;;;;;;;;20.80;58.80;;;;;;4984198;28;1270;-65
2021/08/24 13:02:50;;;;;;;;;;;20.80;59.20;;;;;;4986259;28;1331;-66
2021/08/24 13:05:16;;;;;;;;;;;20.80;59.40;;;;;;4987592;28;1295;-66
2021/08/24 13:07:56;;;;;;;;;;;20.80;58.90;;;;;;4987915;28;1336;-66
2021/08/24 13:10:26;;;;;;;;;;;20.80;59.20;;;;;;4990155;28;1281;-65
2021/08/24 13:12:52;;;;;;;;;;;20.80;59.10;;;;;;4994694;28;1902;-65
2021/08/24 13:15:30;;;;;;;;;;;20.80;58.30;;;;;;4995693;28;1321;-65
2021/08/24 13:18:07;;;;;;;;;;;20.80;58.40;;;;;;4996241;28;1288;-65
2021/08/24 13:20:38;;;;;;;;;;;20.80;57.40;;;;;;4996246;28;1263;-65
2021/08/24 13:23:16;;;;;;;;;;;20.80;56.70;;;;;;4994166;28;1304;-66
2021/08/24 13:25:47;;;;;;;;;;;20.80;57.80;;;;;;4980311;28;1306;-65
2021/08/24 13:28:13;;;;;;;;;;;20.80;57.30;;;;;;4994852;28;1322;-65
2021/08/24 13:30:39;;;;;;;;;;;20.80;57.30;;;;;;4984008;28;1244;-65
2021/08/24 13:33:11;;;;;;;;;;;20.80;58.40;;;;;;4974921;28;1910;-66
2021/08/24 13:35:55;;;;;;;;;;;20.80;59.50;;;;;;4975158;28;1360;-65
2021/08/24 13:38:30;;;;;;;;;;;20.80;59.40;;;;;;4984140;28;1292;-66
2021/08/24 13:41:10;;;;;;;;;;;20.80;59.10;;;;;;4995773;28;1287;-66
2021/08/24 13:43:36;;;;;;;;;;;20.80;59.50;;;;;;4992727;28;2188;-66
2021/08/24 13:46:01;;;;;;;;;;;20.80;60.10;;;;;;4995609;28;1340;-65
2021/08/24 13:48:27;;;;;;;;;;;20.80;60.00;;;;;;4992476;28;1277;-65
2021/08/24 13:51:04;;;;;;;;;;;20.90;59.80;;;;;;4992829;28;1227;-65
2021/08/24 13:53:30;;;;;;;;;;;20.90;59.70;;;;;;4992812;28;1971;-65
2021/08/24 13:55:56;;;;;;;;;;;20.90;59.70;;;;;;4995442;28;1745;-65
2021/08/24 13:58:28;;;;;;;;;;;20.80;59.80;;;;;;4994383;28;1328;-65
2021/08/24 14:01:12;;;;;;;;;;;20.80;59.70;;;;;;4994153;28;1351;-65
2021/08/24 14:03:40;;;;;;;;;;;20.80;59.50;;;;;;4994865;28;1518;-65
2021/08/24 14:06:06;;;;;;;;;;;20.80;59.90;;;;;;4992537;28;1889;-65
2021/08/24 14:08:31;;;;;;;;;;;20.80;59.60;;;;;;4975768;28;1339;-65
2021/08/24 14:10:57;;;;;;;;;;;20.80;59.20;;;;;;4974617;28;1344;-65
2021/08/24 14:13:23;;;;;;;;;;;20.80;59.30;;;;;;4993470;28;1951;-65
2021/08/24 14:15:53;;;;;;;;;;;20.80;59.90;;;;;;4994952;28;1228;-65
2021/08/24 14:18:20;;;;;;;;;;;20.80;59.20;;;;;;4993921;28;1332;-65
2021/08/24 14:20:46;;;;;;;;;;;20.80;60.20;;;;;;4990310;28;1662;-64
2021/08/24 14:23:14;;;;;;;;;;;20.80;60.20;;;;;;4993515;28;1241;-65
2021/08/24 14:25:42;;;;;;;;;;;20.80;59.70;;;;;;4993193;28;1409;-65
2021/08/24 14:28:31;;;;;;;;;;;20.80;58.70;;;;;;4993833;28;1325;-64
2021/08/24 14:30:56;;;;;;;;;;;20.80;58.00;;;;;;4977025;28;1386;-65
2021/08/24 14:33:25;;;;;;;;;;;20.80;59.20;;;;;;4973944;28;1906;-65
2021/08/24 14:35:55;;;;;;;;;;;20.80;59.10;;;;;;4974122;28;1427;-65
2021/08/24 14:38:25;;;;;;;;;;;20.80;58.80;;;;;;4973720;28;1447;-66
2021/08/24 14:40:51;;;;;;;;;;;20.80;59.20;;;;;;4973996;28;1388;-66